createdAt,value
2023-03-16T00:02:17.477Z,96461.09
2023-03-16T00:04:47.443Z,96449.53
2023-03-16T00:07:15.235Z,96455.56
2023-03-16T00:09:43.129Z,96468.53
2023-03-16T00:12:19.999Z,96466.31
2023-03-16T00:14:48.411Z,96462.19
2023-03-16T00:17:20.748Z,96470.41
2023-03-16T00:19:55.849Z,96467.31
2023-03-16T00:22:28.430Z,96476.75
2023-03-16T00:24:56.502Z,96476.03
2023-03-16T00:27:24.974Z,96473.13
2023-03-16T00:29:56.529Z,96482.13
2023-03-16T00:32:26.688Z,96479.44
2023-03-16T00:34:54.541Z,96487.34
2023-03-16T00:37:23.623Z,96492.94
2023-03-16T00:39:51.962Z,96491.31
2023-03-16T00:42:19.934Z,96489.69
2023-03-16T00:44:47.698Z,96487.13
2023-03-16T00:47:15.558Z,96487.91
2023-03-16T00:49:43.874Z,96487.03
2023-03-16T00:52:15.402Z,96478.78
2023-03-16T00:54:43.672Z,96480.97
2023-03-16T00:57:12.655Z,96473.75
2023-03-16T00:59:40.589Z,96479.13
2023-03-16T01:02:08.540Z,96480.22
2023-03-16T01:04:36.585Z,96476.56
2023-03-16T01:07:04.488Z,96475.09
2023-03-16T01:09:36.976Z,96474.66
2023-03-16T01:12:09.258Z,96479.38
2023-03-16T01:14:37.055Z,96479.81
2023-03-16T01:17:06.284Z,96474.22
2023-03-16T01:19:35.735Z,96482.25
2023-03-16T01:22:05.846Z,96479.56
2023-03-16T01:24:34.918Z,96484.97
2023-03-16T01:27:02.828Z,96478.97
2023-03-16T01:29:30.951Z,96479.81
2023-03-16T01:32:00.410Z,96484.56
2023-03-16T01:34:28.659Z,96475.31
2023-03-16T01:36:56.825Z,96479.50
2023-03-16T01:39:45.429Z,96485.69
2023-03-16T01:42:14.425Z,96490.53
2023-03-16T01:44:55.583Z,96484.81
2023-03-16T01:47:28.105Z,96496.31
2023-03-16T01:49:56.572Z,96490.88
2023-03-16T01:52:33.427Z,96490.63
2023-03-16T01:55:04.321Z,96491.19
2023-03-16T01:57:36.938Z,96496.78
2023-03-16T02:00:20.007Z,96495.38
2023-03-16T02:03:16.302Z,96497.22
2023-03-16T02:05:54.622Z,96501.78
2023-03-16T02:08:24.918Z,96504.38
2023-03-16T02:10:54.783Z,96505.94
2023-03-16T02:13:24.020Z,96509.78
2023-03-16T02:15:53.571Z,96512.97
2023-03-16T02:18:23.128Z,96506.81
2023-03-16T02:20:53.156Z,96503.03
2023-03-16T02:23:21.099Z,96511.84
2023-03-16T02:25:57.506Z,96515.81
2023-03-16T02:28:34.026Z,96513.75
2023-03-16T02:31:02.212Z,96517.72
2023-03-16T02:33:30.202Z,96528.19
2023-03-16T02:35:58.052Z,96526.19
2023-03-16T02:38:25.964Z,96526.53
2023-03-16T02:41:21.039Z,96533.06
2023-03-16T02:43:56.504Z,96531.59
2023-03-16T02:46:29.032Z,96538.44
2023-03-16T02:49:08.281Z,96541.50
2023-03-16T02:51:37.569Z,96540.06
2023-03-16T02:54:05.399Z,96543.94
2023-03-16T02:56:35.493Z,96548.25
2023-03-16T02:59:03.260Z,96562.19
2023-03-16T03:01:32.609Z,96557.66
2023-03-16T03:04:01.309Z,96553.94
2023-03-16T03:06:29.252Z,96569.88
2023-03-16T03:08:56.968Z,96572.91
2023-03-16T03:11:24.866Z,96570.25
2023-03-16T03:13:53.202Z,96576.78
2023-03-16T03:16:24.143Z,96585.09
2023-03-16T03:18:52.840Z,96583.19
2023-03-16T03:21:21.184Z,96593.66
2023-03-16T03:23:48.854Z,96597.66
2023-03-16T03:26:16.724Z,96600.59
2023-03-16T03:28:45.835Z,96599.09
2023-03-16T03:31:18.696Z,96602.00
2023-03-16T03:33:46.409Z,96605.25
2023-03-16T03:36:14.289Z,96610.00
2023-03-16T03:38:44.264Z,96614.66
2023-03-16T03:41:12.796Z,96610.81
2023-03-16T03:43:41.448Z,96617.78
2023-03-16T03:46:14.925Z,96619.03
2023-03-16T03:48:42.942Z,96627.19
2023-03-16T03:51:10.679Z,96634.53
2023-03-16T03:53:58.426Z,96637.16
2023-03-16T03:56:58.461Z,96636.50
2023-03-16T03:59:26.333Z,96627.56
2023-03-16T04:02:16.937Z,96638.47
2023-03-16T04:04:51.626Z,96642.25
2023-03-16T04:07:19.399Z,96642.25
2023-03-16T04:09:48.019Z,96647.59
2023-03-16T04:12:35.993Z,96660.59
2023-03-16T04:15:04.771Z,96665.94
2023-03-16T04:17:37.907Z,96678.66
2023-03-16T04:20:15.570Z,96676.91
2023-03-16T04:22:46.679Z,96667.19
2023-03-16T04:25:16.882Z,96677.25
2023-03-16T04:27:46.771Z,96684.66
2023-03-16T04:30:16.589Z,96683.56
2023-03-16T04:32:49.371Z,96702.03
2023-03-16T04:35:20.536Z,96696.28
2023-03-16T04:37:52.453Z,96702.66
2023-03-16T04:40:24.579Z,96704.44
2023-03-16T04:43:01.553Z,96716.09
2023-03-16T04:45:30.713Z,96715.59
2023-03-16T04:47:59.315Z,96716.22
2023-03-16T04:50:27.596Z,96727.06
2023-03-16T04:52:56.365Z,96718.69
2023-03-16T04:55:24.541Z,96726.56
2023-03-16T04:57:53.407Z,96724.75
2023-03-16T05:00:23.716Z,96738.63
2023-03-16T05:03:04.456Z,96742.69
2023-03-16T05:05:32.678Z,96735.63
2023-03-16T05:08:01.627Z,96738.13
2023-03-16T05:10:32.011Z,96754.47
2023-03-16T05:13:00.010Z,96749.00
2023-03-16T05:15:27.858Z,96748.19
2023-03-16T05:18:16.324Z,96760.09
2023-03-16T05:20:44.019Z,96756.66
2023-03-16T05:23:12.433Z,96753.88
2023-03-16T05:25:48.040Z,96763.63
2023-03-16T05:28:17.692Z,96764.66
2023-03-16T05:31:04.025Z,96767.81
2023-03-16T05:33:38.370Z,96772.91
2023-03-16T05:36:10.806Z,96774.75
2023-03-16T05:38:42.688Z,96774.47
2023-03-16T05:41:14.894Z,96781.72
2023-03-16T05:44:01.131Z,96776.88
2023-03-16T05:46:39.508Z,96786.75
2023-03-16T05:49:08.321Z,96785.13
2023-03-16T05:51:36.939Z,96800.81
2023-03-16T05:54:06.736Z,96808.38
2023-03-16T05:56:43.282Z,96807.94
2023-03-16T05:59:11.198Z,96807.59
2023-03-16T06:01:40.057Z,96812.06
2023-03-16T06:04:08.350Z,96812.41
2023-03-16T06:06:40.739Z,96821.31
2023-03-16T06:09:16.810Z,96820.75
2023-03-16T06:11:44.547Z,96823.03
2023-03-16T06:14:14.659Z,96826.56
2023-03-16T06:16:43.078Z,96834.56
2023-03-16T06:19:11.609Z,96840.66
2023-03-16T06:21:39.469Z,96834.34
2023-03-16T06:24:11.646Z,96835.59
2023-03-16T06:26:39.622Z,96836.59
2023-03-16T06:29:12.465Z,96837.00
2023-03-16T06:31:41.626Z,96837.91
2023-03-16T06:34:09.467Z,96837.38
2023-03-16T06:36:39.742Z,96841.81
2023-03-16T06:39:11.659Z,96853.91
2023-03-16T06:41:42.851Z,96848.81
2023-03-16T06:44:12.823Z,96857.28
2023-03-16T06:46:51.049Z,96866.47
2023-03-16T06:49:18.895Z,96873.34
2023-03-16T06:51:46.592Z,96877.03
2023-03-16T06:54:15.017Z,96881.56
2023-03-16T06:56:43.411Z,96878.84
2023-03-16T06:59:12.142Z,96885.88
2023-03-16T07:01:39.890Z,96895.50
2023-03-16T07:04:08.083Z,96892.34
2023-03-16T07:06:36.012Z,96904.47
2023-03-16T07:09:04.021Z,96904.25
2023-03-16T07:11:32.764Z,96907.91
2023-03-16T07:14:01.602Z,96913.56
2023-03-16T07:16:32.253Z,96922.66
2023-03-16T07:19:02.984Z,96918.94
2023-03-16T07:21:39.189Z,96918.13
2023-03-16T07:24:09.927Z,96926.00
2023-03-16T07:26:38.955Z,96928.91
2023-03-16T07:29:07.145Z,96936.69
2023-03-16T07:31:36.005Z,96939.22
2023-03-16T07:34:08.956Z,96943.97
2023-03-16T07:36:42.183Z,96954.69
2023-03-16T07:39:13.936Z,96953.66
2023-03-16T07:41:42.882Z,96943.59
2023-03-16T07:44:21.682Z,96948.41
2023-03-16T07:46:50.154Z,96951.97
2023-03-16T07:49:18.382Z,96959.03
2023-03-16T07:51:47.997Z,96965.41
2023-03-16T07:54:18.754Z,96958.03
2023-03-16T07:56:49.672Z,96962.19
2023-03-16T07:59:42.500Z,96958.25
2023-03-16T08:02:17.773Z,96966.97
2023-03-16T08:04:46.123Z,96979.16
2023-03-16T08:07:15.831Z,96977.56
2023-03-16T08:09:58.338Z,96983.84
2023-03-16T08:12:35.707Z,96982.88
2023-03-16T08:15:05.952Z,96989.78
2023-03-16T08:17:34.401Z,96987.78
2023-03-16T08:20:14.481Z,96990.38
2023-03-16T08:22:46.786Z,96987.22
2023-03-16T08:25:17.745Z,97002.31
2023-03-16T08:27:54.161Z,97001.97
2023-03-16T08:30:22.793Z,97006.53
2023-03-16T08:33:03.281Z,97006.31
2023-03-16T08:35:31.122Z,97001.75
2023-03-16T08:37:59.917Z,97014.13
2023-03-16T08:40:29.882Z,97011.78
2023-03-16T08:42:59.420Z,97010.66
2023-03-16T08:45:27.166Z,97019.13
2023-03-16T08:47:55.079Z,97014.59
2023-03-16T08:50:22.832Z,97026.78
2023-03-16T08:52:50.938Z,97028.31
2023-03-16T08:55:18.698Z,97024.81
2023-03-16T08:57:46.512Z,97021.09
2023-03-16T09:00:15.264Z,97024.38
2023-03-16T09:02:43.203Z,97032.72
2023-03-16T09:05:12.558Z,97031.16
2023-03-16T09:07:40.418Z,97032.59
2023-03-16T09:10:08.795Z,97031.75
2023-03-16T09:12:36.694Z,97038.91
2023-03-16T09:15:05.625Z,97044.69
2023-03-16T09:17:33.516Z,97044.97
2023-03-16T09:20:19.348Z,97040.56
2023-03-16T09:22:49.202Z,97044.31
2023-03-16T09:25:16.930Z,97047.84
2023-03-16T09:27:44.816Z,97050.78
2023-03-16T09:30:13.289Z,97050.56
2023-03-16T09:32:41.336Z,97049.47
2023-03-16T09:35:09.323Z,97052.06
2023-03-16T09:37:45.156Z,97048.75
2023-03-16T09:40:23.650Z,97061.31
2023-03-16T09:43:13.084Z,97067.03
2023-03-16T09:45:59.786Z,97060.00
2023-03-16T09:48:28.578Z,97060.00
2023-03-16T09:50:56.584Z,97059.41
2023-03-16T09:53:32.255Z,97067.38
2023-03-16T09:56:15.737Z,97066.44
2023-03-16T09:58:43.936Z,97065.34
2023-03-16T10:01:20.549Z,97075.53
2023-03-16T10:04:25.573Z,97064.81
2023-03-16T10:07:06.459Z,97077.38
2023-03-16T10:09:38.322Z,97077.63
2023-03-16T10:12:06.576Z,97077.81
2023-03-16T10:14:58.771Z,97085.44
2023-03-16T10:17:29.241Z,97081.22
2023-03-16T10:19:59.500Z,97075.59
2023-03-16T10:22:33.645Z,97073.88
2023-03-16T10:25:21.807Z,97079.97
2023-03-16T10:27:49.868Z,97076.75
2023-03-16T10:30:34.772Z,97084.84
2023-03-16T10:33:05.571Z,97076.03
2023-03-16T10:35:52.515Z,97083.53
2023-03-16T10:38:50.788Z,97084.00
2023-03-16T10:41:18.467Z,97086.78
2023-03-16T10:43:47.948Z,97080.22
2023-03-16T10:46:15.732Z,97084.19
2023-03-16T10:48:46.108Z,97084.28
2023-03-16T10:51:14.882Z,97082.69
2023-03-16T10:53:44.594Z,97085.50
2023-03-16T10:56:25.478Z,97085.63
2023-03-16T10:58:53.286Z,97075.66
2023-03-16T11:01:26.791Z,97078.78
2023-03-16T11:03:57.086Z,97089.78
2023-03-16T11:06:30.887Z,97090.47
2023-03-16T11:09:18.180Z,97085.75
2023-03-16T11:11:49.637Z,97081.38
2023-03-16T11:14:20.620Z,97072.88
2023-03-16T11:16:53.383Z,97080.56
2023-03-16T11:19:34.613Z,97081.78
2023-03-16T11:22:08.661Z,97087.63
2023-03-16T11:25:06.048Z,97087.78
2023-03-16T11:27:55.632Z,97085.69
2023-03-16T11:30:30.956Z,97081.94
2023-03-16T11:33:00.654Z,97081.50
2023-03-16T11:35:40.147Z,97082.53
2023-03-16T11:38:34.614Z,97093.66
2023-03-16T11:41:09.276Z,97091.47
2023-03-16T11:44:09.321Z,97092.59
2023-03-16T11:46:42.076Z,97096.84
2023-03-16T11:49:39.322Z,97091.63
2023-03-16T11:52:13.047Z,97086.97
2023-03-16T11:54:53.107Z,97091.50
2023-03-16T11:58:09.119Z,97091.38
2023-03-16T12:00:56.084Z,97099.16
2023-03-16T12:03:39.775Z,97095.97
2023-03-16T12:06:23.481Z,97098.22
2023-03-16T12:08:53.668Z,97099.56
2023-03-16T12:11:33.129Z,97098.75
2023-03-16T12:14:18.227Z,97100.84
2023-03-16T12:17:05.828Z,97103.97
2023-03-16T12:19:49.247Z,97092.13
2023-03-16T12:22:25.924Z,97100.25
2023-03-16T12:24:53.691Z,97098.25
2023-03-16T12:27:31.564Z,97101.63
2023-03-16T12:30:04.624Z,97092.97
2023-03-16T12:32:53.747Z,97099.25
2023-03-16T12:35:37.618Z,97097.34
2023-03-16T12:38:23.946Z,97107.53
2023-03-16T12:41:06.794Z,97106.38
2023-03-16T12:43:45.846Z,97112.69
2023-03-16T12:46:15.676Z,97107.97
2023-03-16T12:48:46.146Z,97102.25
2023-03-16T12:51:13.820Z,97119.06
2023-03-16T12:53:53.292Z,97106.00
2023-03-16T12:56:30.862Z,97122.50
2023-03-16T12:59:00.274Z,97120.59
2023-03-16T13:01:37.530Z,97117.81
2023-03-16T13:04:14.338Z,97126.06
2023-03-16T13:06:49.220Z,97123.34
2023-03-16T13:09:24.194Z,97129.03
2023-03-16T13:11:53.371Z,97124.53
2023-03-16T13:14:34.458Z,97128.03
2023-03-16T13:17:17.144Z,97128.47
2023-03-16T13:19:47.765Z,97130.81
2023-03-16T13:22:32.488Z,97130.03
2023-03-16T13:25:25.523Z,97139.47
2023-03-16T13:27:55.323Z,97143.03
2023-03-16T13:30:29.988Z,97143.03
2023-03-16T13:33:20.599Z,97154.47
2023-03-16T13:35:49.655Z,97149.16
2023-03-16T13:38:18.299Z,97159.75
2023-03-16T13:40:47.961Z,97161.44
2023-03-16T13:43:16.493Z,97164.66
2023-03-16T13:45:44.275Z,97164.69
2023-03-16T13:48:16.361Z,97157.97
2023-03-16T13:50:44.674Z,97165.66
2023-03-16T13:53:17.298Z,97171.16
2023-03-16T13:55:45.706Z,97179.34
2023-03-16T13:58:34.894Z,97178.06
2023-03-16T14:01:04.942Z,97182.13
2023-03-16T14:03:37.021Z,97188.19
2023-03-16T14:06:05.899Z,97187.69
2023-03-16T14:08:34.022Z,97188.28
2023-03-16T14:11:01.886Z,97190.41
2023-03-16T14:13:29.693Z,97192.28
2023-03-16T14:16:00.230Z,97192.97
2023-03-16T14:18:33.738Z,97193.72
2023-03-16T14:21:05.861Z,97191.09
2023-03-16T14:23:36.468Z,97197.00
2023-03-16T14:26:05.765Z,97200.09
2023-03-16T14:28:33.774Z,97213.09
2023-03-16T14:31:10.772Z,97204.09
2023-03-16T14:33:41.949Z,97209.56
2023-03-16T14:36:16.393Z,97201.53
2023-03-16T14:38:45.134Z,97209.19
2023-03-16T14:41:21.929Z,97210.06
2023-03-16T14:43:51.661Z,97208.81
2023-03-16T14:46:25.467Z,97216.94
2023-03-16T14:49:00.172Z,97219.00
2023-03-16T14:51:27.932Z,97221.75
2023-03-16T14:53:55.720Z,97228.78
2023-03-16T14:56:23.439Z,97230.03
2023-03-16T14:58:51.244Z,97224.53
2023-03-16T15:01:19.214Z,97229.84
2023-03-16T15:03:47.158Z,97244.25
2023-03-16T15:06:15.299Z,97236.03
2023-03-16T15:08:45.154Z,97239.66
2023-03-16T15:11:13.129Z,97241.97
2023-03-16T15:13:40.845Z,97247.72
2023-03-16T15:16:12.640Z,97249.16
2023-03-16T15:18:40.589Z,97250.00
2023-03-16T15:21:12.957Z,97253.59
2023-03-16T15:23:42.845Z,97272.09
2023-03-16T15:26:12.091Z,97273.41
2023-03-16T15:28:40.162Z,97272.28
2023-03-16T15:31:08.043Z,97276.72
2023-03-16T15:33:35.802Z,97275.59
2023-03-16T15:36:18.612Z,97275.22
2023-03-16T15:38:47.905Z,97284.41
2023-03-16T15:41:16.129Z,97294.28
2023-03-16T15:43:45.658Z,97287.88
2023-03-16T15:46:13.464Z,97296.63
2023-03-16T15:48:41.271Z,97295.06
2023-03-16T15:51:27.336Z,97296.03
2023-03-16T15:53:58.610Z,97293.09
2023-03-16T15:56:30.233Z,97307.88
2023-03-16T15:59:02.291Z,97316.38
2023-03-16T16:01:34.145Z,97314.50
2023-03-16T16:04:01.864Z,97315.81
2023-03-16T16:06:30.465Z,97319.41
2023-03-16T16:08:58.185Z,97324.31
2023-03-16T16:11:26.521Z,97325.81
2023-03-16T16:13:57.530Z,97326.72
2023-03-16T16:16:31.987Z,97334.47
2023-03-16T16:19:00.410Z,97332.34
2023-03-16T16:21:30.768Z,97340.34
2023-03-16T16:23:58.754Z,97338.66
2023-03-16T16:26:34.332Z,97343.34
2023-03-16T16:29:16.344Z,97343.59
2023-03-16T16:31:44.175Z,97347.69
2023-03-16T16:34:17.373Z,97358.00
2023-03-16T16:36:45.298Z,97357.91
2023-03-16T16:39:13.026Z,97372.44
2023-03-16T16:41:41.156Z,97364.28
2023-03-16T16:44:17.514Z,97368.59
2023-03-16T16:46:45.326Z,97366.91
2023-03-16T16:49:14.117Z,97377.69
2023-03-16T16:51:42.737Z,97385.31
2023-03-16T16:54:23.533Z,97384.88
2023-03-16T16:56:52.898Z,97390.06
2023-03-16T16:59:31.266Z,97393.69
2023-03-16T17:02:00.284Z,97398.69
2023-03-16T17:04:28.608Z,97392.06
2023-03-16T17:06:58.967Z,97393.16
2023-03-16T17:09:27.300Z,97400.84
2023-03-16T17:11:57.059Z,97399.88
2023-03-16T17:14:27.602Z,97405.38
2023-03-16T17:16:55.593Z,97401.47
2023-03-16T17:19:25.191Z,97408.72
2023-03-16T17:21:55.465Z,97406.28
2023-03-16T17:24:23.364Z,97405.72
2023-03-16T17:26:56.097Z,97417.63
2023-03-16T17:29:33.472Z,97413.03
2023-03-16T17:32:02.416Z,97426.59
2023-03-16T17:34:32.102Z,97424.94
2023-03-16T17:36:59.844Z,97427.75
2023-03-16T17:39:28.876Z,97432.91
2023-03-16T17:42:02.589Z,97437.50
2023-03-16T17:44:34.789Z,97444.03
2023-03-16T17:47:02.662Z,97444.38
2023-03-16T17:49:31.744Z,97447.41
2023-03-16T17:51:59.691Z,97447.88
2023-03-16T17:54:28.360Z,97453.88
2023-03-16T17:56:56.267Z,97455.72
2023-03-16T17:59:24.067Z,97448.88
2023-03-16T18:01:52.221Z,97457.13
2023-03-16T18:04:24.289Z,97458.50
2023-03-16T18:06:52.328Z,97462.53
2023-03-16T18:09:20.436Z,97460.88
2023-03-16T18:11:49.983Z,97462.25
2023-03-16T18:14:35.213Z,97452.63
2023-03-16T18:17:27.608Z,97462.75
2023-03-16T18:19:55.342Z,97464.69
2023-03-16T18:22:24.614Z,97457.94
2023-03-16T18:24:53.105Z,97466.38
2023-03-16T18:27:21.001Z,97466.22
2023-03-16T18:29:48.947Z,97465.50
2023-03-16T18:32:27.467Z,97473.44
2023-03-16T18:34:55.488Z,97465.56
2023-03-16T18:37:24.929Z,97470.31
2023-03-16T18:39:52.717Z,97474.19
2023-03-16T18:42:21.655Z,97470.19
2023-03-16T18:44:49.413Z,97477.22
2023-03-16T18:47:22.327Z,97478.19
2023-03-16T18:49:52.943Z,97479.00
2023-03-16T18:52:24.810Z,97483.75
2023-03-16T18:54:53.166Z,97484.34
2023-03-16T18:57:25.212Z,97481.38
2023-03-16T18:59:52.912Z,97491.38
2023-03-16T19:02:28.768Z,97498.81
2023-03-16T19:04:56.927Z,97492.56
2023-03-16T19:07:29.004Z,97508.50
2023-03-16T19:09:56.700Z,97509.38
2023-03-16T19:12:24.446Z,97508.66
2023-03-16T19:14:52.140Z,97509.72
2023-03-16T19:17:20.117Z,97505.75
2023-03-16T19:19:47.993Z,97508.28
2023-03-16T19:22:16.973Z,97520.63
2023-03-16T19:24:49.110Z,97521.47
2023-03-16T19:27:21.496Z,97514.91
2023-03-16T19:29:51.971Z,97511.50
2023-03-16T19:32:21.074Z,97517.09
2023-03-16T19:34:48.971Z,97515.47
2023-03-16T19:37:18.114Z,97517.97
2023-03-16T19:39:46.115Z,97528.88
2023-03-16T19:42:28.594Z,97517.53
2023-03-16T19:44:56.373Z,97527.38
2023-03-16T19:47:28.889Z,97536.53
2023-03-16T19:49:57.023Z,97533.59
2023-03-16T19:52:25.413Z,97526.16
2023-03-16T19:54:53.223Z,97523.06
2023-03-16T19:57:21.157Z,97529.69
2023-03-16T19:59:55.922Z,97527.88
2023-03-16T20:02:37.747Z,97531.91
2023-03-16T20:05:06.579Z,97542.03
2023-03-16T20:07:38.142Z,97546.44
2023-03-16T20:10:06.465Z,97545.47
2023-03-16T20:12:41.694Z,97542.28
2023-03-16T20:15:14.397Z,97553.25
2023-03-16T20:17:43.323Z,97551.78
2023-03-16T20:20:30.110Z,97551.06
2023-03-16T20:23:21.077Z,97563.91
2023-03-16T20:25:48.994Z,97560.22
2023-03-16T20:28:24.250Z,97562.41
2023-03-16T20:30:52.568Z,97562.94
2023-03-16T20:33:23.783Z,97561.25
2023-03-16T20:35:54.845Z,97559.44
2023-03-16T20:38:23.084Z,97568.31
2023-03-16T20:40:52.371Z,97563.38
2023-03-16T20:43:30.241Z,97565.47
2023-03-16T20:45:59.632Z,97566.63
2023-03-16T20:48:27.534Z,97565.91
2023-03-16T20:50:56.120Z,97567.28
2023-03-16T20:53:24.272Z,97566.34
2023-03-16T20:55:52.223Z,97569.81
2023-03-16T20:58:20.938Z,97571.56
2023-03-16T21:00:50.532Z,97571.34
2023-03-16T21:03:20.706Z,97569.00
2023-03-16T21:05:51.939Z,97576.41
2023-03-16T21:08:19.729Z,97574.13
2023-03-16T21:10:48.846Z,97577.94
2023-03-16T21:13:28.556Z,97580.59
2023-03-16T21:15:56.980Z,97578.88
2023-03-16T21:18:24.719Z,97577.81
2023-03-16T21:20:53.664Z,97570.94
2023-03-16T21:23:22.132Z,97574.47
2023-03-16T21:25:51.774Z,97576.00
2023-03-16T21:28:19.972Z,97571.75
2023-03-16T21:30:51.993Z,97575.84
2023-03-16T21:33:21.900Z,97570.53
2023-03-16T21:35:49.633Z,97577.56
2023-03-16T21:38:19.061Z,97585.84
2023-03-16T21:40:47.269Z,97576.97
2023-03-16T21:43:14.979Z,97588.69
2023-03-16T21:45:43.150Z,97584.44
2023-03-16T21:48:16.078Z,97577.91
2023-03-16T21:50:44.160Z,97587.53
2023-03-16T21:53:19.688Z,97584.81
2023-03-16T21:55:47.917Z,97590.00
2023-03-16T21:58:17.206Z,97588.00
2023-03-16T22:00:46.761Z,97589.75
2023-03-16T22:03:26.440Z,97593.59
2023-03-16T22:05:54.866Z,97601.22
2023-03-16T22:08:35.279Z,97598.00
2023-03-16T22:11:03.279Z,97601.53
2023-03-16T22:13:33.556Z,97598.66
2023-03-16T22:16:02.347Z,97599.31
2023-03-16T22:18:34.590Z,97606.16
2023-03-16T22:21:04.529Z,97609.47
2023-03-16T22:23:34.266Z,97603.25
2023-03-16T22:26:02.974Z,97606.59
2023-03-16T22:28:31.708Z,97612.31
2023-03-16T22:31:00.883Z,97614.22
2023-03-16T22:33:29.936Z,97613.28
2023-03-16T22:36:09.601Z,97610.44
2023-03-16T22:38:40.844Z,97617.09
2023-03-16T22:41:14.027Z,97631.09
2023-03-16T22:43:42.880Z,97630.16
2023-03-16T22:46:23.365Z,97623.78
2023-03-16T22:48:52.187Z,97627.91
2023-03-16T22:51:26.648Z,97639.22
2023-03-16T22:53:56.409Z,97641.25
2023-03-16T22:56:24.083Z,97646.69
2023-03-16T22:58:54.421Z,97651.44
2023-03-16T23:01:45.968Z,97645.53
2023-03-16T23:04:15.438Z,97653.22
2023-03-16T23:06:43.465Z,97656.38
2023-03-16T23:09:15.432Z,97663.81
2023-03-16T23:11:43.749Z,97667.84
2023-03-16T23:14:18.730Z,97670.81
2023-03-16T23:16:46.730Z,97677.13
2023-03-16T23:19:24.786Z,97685.81
2023-03-16T23:21:54.575Z,97683.22
2023-03-16T23:24:22.430Z,97678.78
2023-03-16T23:26:50.688Z,97677.59
2023-03-16T23:29:18.478Z,97690.28
2023-03-16T23:31:46.688Z,97676.38
2023-03-16T23:34:16.330Z,97688.06
2023-03-16T23:36:43.986Z,97700.78
2023-03-16T23:39:11.898Z,97697.38
2023-03-16T23:41:39.722Z,97695.09
2023-03-16T23:44:07.814Z,97693.81
2023-03-16T23:46:35.489Z,97702.88
2023-03-16T23:49:04.607Z,97703.44
2023-03-16T23:51:36.032Z,97703.78
2023-03-16T23:54:13.706Z,97708.84
2023-03-16T23:56:41.517Z,97706.34
2023-03-16T23:59:09.267Z,97724.94
